Time;durP1;ratioP1;P1;durP2;ratioP2;P2;SDS_P1;SDS_P2;PMS_P1;PMS_P2;Temp;Humidity;BMP_temperature;BMP_pressure;BME280_temperature;BME280_humidity;BME280_pressure;Samples;Min_cycle;Max_cycle;Signal;HPM_P1;HPM_P2
2022/08/23 00:00:41;;;;;;;6.68;3.00;;;;;;;21.93;56.93;101621.59;6009114;29;20238;-70
2022/08/23 00:04:06;;;;;;;4.45;2.65;;;;;;;21.98;56.70;101626.53;6007275;29;20795;-69
2022/08/23 00:07:27;;;;;;;3.40;2.22;;;;;;;21.87;57.80;101616.03;6011637;29;20230;-68
2022/08/23 00:10:48;;;;;;;4.85;2.08;;;;;;;21.59;57.85;101623.22;6008810;29;20625;-69
2022/08/23 00:14:14;;;;;;;5.60;2.15;;;;;;;21.22;59.49;101621.38;6013416;29;20241;-70
2022/08/23 00:17:35;;;;;;;4.90;2.75;;;;;;;21.46;58.92;101618.41;6009967;29;20242;-68
2022/08/23 00:20:56;;;;;;;3.00;2.28;;;;;;;21.46;59.00;101619.22;6017357;29;20318;-68
2022/08/23 00:24:18;;;;;;;5.88;2.47;;;;;;;21.58;58.83;101618.75;6009448;29;20238;-69
2022/08/23 00:27:39;;;;;;;3.33;2.60;;;;;;;21.54;59.18;101615.56;6013782;29;20443;-69
2022/08/23 00:31:02;;;;;;;3.75;2.40;;;;;;;21.70;58.58;101617.25;6009794;29;20529;-69
2022/08/23 00:34:23;;;;;;;2.55;2.35;;;;;;;21.60;58.93;101619.41;6013895;29;20321;-70
2022/08/23 00:37:44;;;;;;;4.95;2.67;;;;;;;21.46;59.93;101623.88;6012161;29;20230;-69
2022/08/23 00:41:05;;;;;;;3.63;2.10;;;;;;;21.50;59.59;101627.94;6012430;29;20238;-69
2022/08/23 00:48:13;;;;;;;4.13;2.58;;;;;;;21.53;59.83;101615.75;6011833;29;20239;-70
2022/08/23 00:51:41;;;;;;;4.57;2.25;;;;;;;21.25;60.69;101623.78;6006698;29;20242;-69
2022/08/23 00:55:02;;;;;;;3.65;2.42;;;;;;;21.45;60.04;101620.28;6013701;29;20242;-69
2022/08/23 00:58:24;;;;;;;3.90;2.45;;;;;;;21.71;59.58;101624.44;6014097;29;20648;-70
2022/08/23 01:01:45;;;;;;;3.88;2.40;;;;;;;21.95;58.86;101626.91;6011593;29;20335;-70
2022/08/23 01:05:09;;;;;;;2.15;1.80;;;;;;;21.66;59.17;101618.66;6013323;29;20239;-70
2022/08/23 01:08:32;;;;;;;3.90;2.58;;;;;;;21.58;59.45;101616.03;6006804;29;20242;-69
2022/08/23 01:11:58;;;;;;;3.78;2.60;;;;;;;21.42;60.12;101615.16;6000533;29;20724;-68
2022/08/23 01:15:32;;;;;;;3.17;2.58;;;;;;;21.81;58.90;101614.00;6009987;29;20280;-69
2022/08/23 01:18:55;;;;;;;3.10;2.38;;;;;;;21.58;59.18;101622.38;6005951;29;20230;-69
2022/08/23 01:22:25;;;;;;;4.63;2.47;;;;;;;21.31;60.22;101625.75;6011333;29;20585;-68
2022/08/23 01:25:48;;;;;;;4.45;2.72;;;;;;;21.45;60.14;101620.28;6010404;29;20230;-68
2022/08/23 01:29:10;;;;;;;3.97;2.60;;;;;;;21.40;60.46;101622.72;6005662;29;20266;-69
2022/08/23 01:32:31;;;;;;;4.88;2.30;;;;;;;21.74;59.09;101621.31;6012313;29;20836;-70
2022/08/23 01:35:58;;;;;;;2.38;2.10;;;;;;;21.58;59.22;101630.59;6007914;29;20243;-69
2022/08/23 01:39:21;;;;;;;3.22;2.25;;;;;;;21.09;60.75;101619.28;6003739;29;20242;-69
2022/08/23 01:42:43;;;;;;;2.30;2.10;;;;;;;21.53;59.78;101627.56;6009713;29;20264;-70
2022/08/23 01:46:09;;;;;;;2.38;2.17;;;;;;;21.09;60.43;101627.50;6001074;29;20242;-69
2022/08/23 01:49:33;;;;;;;4.15;2.40;;;;;;;21.01;61.22;101629.44;5989450;29;20234;-68
2022/08/23 01:52:54;;;;;;;3.10;2.38;;;;;;;20.95;60.86;101621.97;6007165;29;20231;-68
2022/08/23 01:56:20;;;;;;;4.45;2.00;;;;;;;21.17;60.39;101626.59;6010744;29;20663;-69
2022/08/23 01:59:44;;;;;;;2.63;2.40;;;;;;;21.04;61.13;101627.25;6018191;29;20227;-69
2022/08/23 02:03:06;;;;;;;2.90;1.98;;;;;;;21.20;60.38;101624.31;6010222;29;20242;-69
2022/08/23 02:06:27;;;;;;;2.92;2.33;;;;;;;21.04;60.86;101629.97;6008967;29;20246;-69
2022/08/23 02:09:48;;;;;;;2.33;2.20;;;;;;;20.92;61.07;101625.09;6008818;29;20265;-69
2022/08/23 02:13:10;;;;;;;4.65;2.63;;;;;;;20.91;61.11;101626.13;6010869;29;20513;-68
2022/08/23 02:16:35;;;;;;;7.32;2.83;;;;;;;21.01;60.76;101622.06;6010399;29;20234;-68
2022/08/23 02:19:56;;;;;;;5.50;2.60;;;;;;;21.07;60.25;101623.28;6013182;29;20593;-68
2022/08/23 02:23:19;;;;;;;2.22;1.85;;;;;;;21.14;60.42;101616.84;6007548;29;21031;-69
2022/08/23 02:26:44;;;;;;;2.40;2.20;;;;;;;21.21;59.61;101619.69;6022214;29;20266;-69
2022/08/23 02:30:07;;;;;;;3.28;2.30;;;;;;;20.77;61.12;101622.31;6019643;29;20242;-69
2022/08/23 02:33:30;;;;;;;2.28;2.08;;;;;;;21.07;60.48;101626.03;6023712;29;20641;-69
2022/08/23 02:36:51;;;;;;;3.13;2.00;;;;;;;21.18;60.26;101625.53;6015112;29;20262;-69
2022/08/23 02:40:12;;;;;;;3.80;2.25;;;;;;;21.45;59.24;101625.78;6013602;29;22352;-69
2022/08/23 02:43:34;;;;;;;3.90;2.70;;;;;;;21.01;60.15;101626.69;6026509;29;20420;-69
2022/08/23 02:46:55;;;;;;;2.75;2.45;;;;;;;20.91;60.47;101624.22;6009821;29;20235;-69
2022/08/23 02:50:18;;;;;;;8.18;2.63;;;;;;;20.85;60.51;101624.97;6008688;29;20239;-68
2022/08/23 02:53:39;;;;;;;3.45;2.88;;;;;;;20.79;60.48;101622.13;6012924;29;20319;-69
2022/08/23 02:57:04;;;;;;;3.60;2.65;;;;;;;20.64;61.26;101635.75;6002258;29;20229;-69
2022/08/23 03:00:26;;;;;;;3.13;2.55;;;;;;;21.01;59.98;101633.03;6013380;29;20239;-69
2022/08/23 03:03:47;;;;;;;5.10;3.20;;;;;;;20.98;59.84;101635.31;6011846;29;20610;-70
2022/08/23 03:07:09;;;;;;;5.97;5.47;;;;;;;21.19;59.85;101639.09;6014771;29;20234;-69
2022/08/23 03:10:32;;;;;;;5.85;4.80;;;;;;;21.28;58.93;101640.69;6012772;29;20235;-69
2022/08/23 03:13:56;;;;;;;3.92;2.90;;;;;;;21.01;59.75;101646.75;6015663;29;20882;-68
2022/08/23 03:17:17;;;;;;;3.78;3.03;;;;;;;20.49;60.86;101651.28;6010614;29;22053;-69
2022/08/23 03:20:40;;;;;;;4.57;2.78;;;;;;;20.94;59.80;101644.94;5999260;29;20230;-69
2022/08/23 03:24:03;;;;;;;2.88;2.50;;;;;;;20.86;59.95;101642.28;6014699;29;20310;-69
2022/08/23 03:27:25;;;;;;;3.67;2.72;;;;;;;20.64;60.01;101650.31;6014383;29;20270;-69
2022/08/23 03:30:46;;;;;;;4.03;2.90;;;;;;;20.79;59.95;101646.78;6011095;29;20900;-68
2022/08/23 03:34:08;;;;;;;4.97;2.90;;;;;;;20.69;59.88;101650.63;6014260;29;20230;-69
2022/08/23 03:37:29;;;;;;;2.70;2.50;;;;;;;20.77;60.33;101662.56;6015589;29;20242;-69
2022/08/23 03:40:52;;;;;;;2.85;2.63;;;;;;;20.25;61.14;101662.41;6016133;29;20566;-69
2022/08/23 03:44:13;;;;;;;3.38;2.90;;;;;;;20.46;61.24;101660.72;6024838;29;20243;-70
2022/08/23 03:47:37;;;;;;;3.80;3.00;;;;;;;20.64;60.57;101666.78;6013045;29;20246;-68
2022/08/23 03:50:59;;;;;;;3.92;3.13;;;;;;;20.51;60.77;101658.28;6010329;29;20250;-69
2022/08/23 03:54:21;;;;;;;8.85;8.15;;;;;;;20.94;59.63;101665.00;6026447;29;20609;-69
2022/08/23 03:57:46;;;;;;;9.38;4.65;;;;;;;20.52;60.40;101662.75;6011601;29;20266;-69
2022/08/23 04:01:07;;;;;;;3.92;2.83;;;;;;;20.13;61.63;101669.28;6008350;29;20226;-68
2022/08/23 04:04:29;;;;;;;7.13;5.53;;;;;;;20.33;61.39;101668.69;6013709;29;20234;-69
2022/08/23 04:08:11;;;;;;;6.82;3.53;;;;;;;20.45;60.89;101672.72;6017812;29;20326;-69
2022/08/23 04:11:34;;;;;;;4.10;3.58;;;;;;;20.13;61.64;101672.84;6012719;29;20250;-68
2022/08/23 04:15:01;;;;;;;3.30;3.00;;;;;;;20.69;60.30;101671.72;6013966;29;20242;-69
2022/08/23 04:18:22;;;;;;;3.42;2.83;;;;;;;20.87;59.59;101679.59;6030305;29;20255;-69
2022/08/23 04:21:50;;;;;;;4.20;2.55;;;;;;;20.78;59.83;101683.47;6010850;29;20239;-68
2022/08/23 04:25:11;;;;;;;3.45;2.85;;;;;;;20.92;59.10;101678.03;6023520;29;20333;-68
2022/08/23 04:28:33;;;;;;;6.25;2.97;;;;;;;20.28;60.87;101684.78;6026200;29;20246;-69
2022/08/23 04:31:55;;;;;;;9.73;3.55;;;;;;;19.91;61.88;101687.34;5991815;29;20680;-68
2022/08/23 04:35:17;;;;;;;4.00;3.17;;;;;;;19.96;62.20;101693.16;6013803;29;20281;-69
2022/08/23 04:38:38;;;;;;;5.30;3.70;;;;;;;19.93;61.92;101693.47;6026027;29;20226;-70
2022/08/23 04:42:17;;;;;;;3.45;2.83;;;;;;;19.99;61.52;101698.25;6012669;29;20577;-68
2022/08/23 04:45:40;;;;;;;7.88;7.28;;;;;;;20.29;60.76;101697.47;6010530;29;20317;-68
2022/08/23 04:49:07;;;;;;;4.50;3.38;;;;;;;19.90;62.11;101704.81;6026337;29;20230;-69
2022/08/23 04:52:28;;;;;;;5.60;3.75;;;;;;;19.97;61.53;101714.00;6011970;29;20337;-69
2022/08/23 04:55:51;;;;;;;4.22;3.28;;;;;;;19.60;62.88;101708.28;6012136;29;20234;-68
2022/08/23 04:59:12;;;;;;;7.82;2.97;;;;;;;20.04;61.91;101715.00;6024517;29;20242;-69
2022/08/23 05:02:34;;;;;;;5.45;3.80;;;;;;;20.17;61.23;101703.50;6015056;29;20231;-68
2022/08/23 05:05:56;;;;;;;4.82;3.13;;;;;;;19.88;62.01;101715.03;6014435;29;20239;-69
2022/08/23 05:09:23;;;;;;;5.40;3.50;;;;;;;20.17;61.06;101720.75;6026959;29;20672;-69
2022/08/23 05:12:46;;;;;;;8.07;7.28;;;;;;;20.65;59.63;101715.03;6011643;29;20761;-69
2022/08/23 05:16:07;;;;;;;8.00;4.50;;;;;;;20.38;60.13;101717.47;6011137;29;20230;-69
2022/08/23 05:19:33;;;;;;;6.72;3.40;;;;;;;20.64;59.02;101720.72;6007769;29;20238;-70
2022/08/23 05:22:55;;;;;;;5.03;3.33;;;;;;;20.84;59.10;101735.66;6014823;29;20245;-69
2022/08/23 05:26:26;;;;;;;4.13;3.30;;;;;;;20.75;58.65;101728.53;6026189;29;20617;-69
2022/08/23 05:29:47;;;;;;;4.75;2.78;;;;;;;20.62;58.01;101723.66;6010168;29;20266;-69
2022/08/23 05:33:09;;;;;;;4.55;2.90;;;;;;;20.67;59.13;101720.38;6018686;29;20242;-69
2022/08/23 05:36:31;;;;;;;3.63;2.38;;;;;;;20.73;58.85;101725.13;6015742;29;20238;-69
2022/08/23 05:39:53;;;;;;;4.18;3.28;;;;;;;20.73;58.58;101727.00;6002757;29;20333;-69
2022/08/23 05:43:14;;;;;;;6.85;3.08;;;;;;;20.79;57.72;101742.72;6017125;29;20242;-68
2022/08/23 05:46:35;;;;;;;10.18;3.70;;;;;;;20.53;58.55;101730.19;6008248;29;20229;-69
2022/08/23 05:50:13;;;;;;;4.88;2.80;;;;;;;20.46;58.35;101742.06;6004092;29;20234;-69
2022/08/23 05:53:33;;;;;;;4.35;2.20;;;;;;;20.56;58.63;101731.72;6024994;29;20529;-69
2022/08/23 05:56:56;;;;;;;9.18;3.50;;;;;;;20.63;57.84;101732.72;6019612;29;20242;-69
2022/08/23 06:00:17;;;;;;;4.95;2.67;;;;;;;20.82;57.28;101745.94;6006015;29;21332;-68
2022/08/23 06:03:41;;;;;;;4.57;3.10;;;;;;;20.56;57.67;101754.50;6007572;29;20254;-69
2022/08/23 06:07:04;;;;;;;4.28;3.08;;;;;;;20.36;58.57;101749.66;6008888;29;20235;-68
2022/08/23 06:10:26;;;;;;;3.35;3.03;;;;;;;20.40;58.17;101751.84;6008531;29;20232;-70
2022/08/23 06:13:56;;;;;;;4.40;3.78;;;;;;;20.32;58.68;101756.50;6013223;29;20787;-68
2022/08/23 06:17:20;;;;;;;6.90;3.50;;;;;;;20.53;58.55;101759.47;6005964;29;20241;-68
2022/08/23 06:20:41;;;;;;;5.18;2.92;;;;;;;21.04;58.29;101767.09;6021329;29;20234;-69
2022/08/23 06:24:04;;;;;;;5.70;4.05;;;;;;;20.94;57.58;101760.09;6003552;29;20246;-69
2022/08/23 06:27:25;;;;;;;7.70;2.95;;;;;;;20.67;58.08;101764.22;6015003;29;20231;-72
2022/08/23 06:30:49;;;;;;;7.28;3.83;;;;;;;20.42;58.88;101770.84;6011020;29;21167;-71
2022/08/23 06:34:37;;;;;;;7.97;3.42;;;;;;;20.56;59.05;101768.22;6013755;29;20321;-73
2022/08/23 06:38:21;;;;;;;11.13;2.95;;;;;;;20.59;58.13;101762.34;6015034;29;20516;-70
2022/08/23 06:41:59;;;;;;;4.38;3.22;;;;;;;21.27;57.43;101764.34;6014150;29;20234;-71
2022/08/23 06:45:24;;;;;;;4.63;3.22;;;;;;;21.38;56.52;101769.41;6007613;29;20600;-69
2022/08/23 06:48:51;;;;;;;5.72;3.05;;;;;;;21.11;57.04;101772.69;6011281;29;20243;-69
2022/08/23 06:52:12;;;;;;;3.30;2.97;;;;;;;21.38;56.50;101774.88;6010879;29;20239;-69
2022/08/23 06:55:44;;;;;;;8.93;3.90;;;;;;;21.37;56.84;101770.41;6004360;29;20239;-69
2022/08/23 06:59:16;;;;;;;5.97;3.00;;;;;;;21.28;56.71;101766.03;6010266;29;20254;-69
2022/08/23 07:03:16;;;;;;;4.70;3.30;;;;;;;21.50;55.59;101778.88;6008385;29;20238;-69
2022/08/23 07:07:18;;;;;;;7.40;3.53;;;;;;;21.57;55.51;101774.34;6015358;29;20238;-69
2022/08/23 07:10:38;;;;;;;6.40;3.00;;;;;;;21.52;55.82;101773.22;5996887;29;20479;-68
2022/08/23 07:14:00;;;;;;;8.02;2.60;;;;;;;21.78;55.66;101760.75;6012615;29;20239;-70
2022/08/23 07:17:21;;;;;;;5.20;3.95;;;;;;;22.26;54.21;101779.47;6022227;29;20231;-71
2022/08/23 07:20:43;;;;;;;5.45;3.13;;;;;;;22.37;54.35;101774.53;6015619;29;20242;-70
2022/08/23 07:24:07;;;;;;;4.00;3.10;;;;;;;22.59;53.52;101779.09;6012500;29;20239;-70
2022/08/23 07:27:28;;;;;;;6.13;3.20;;;;;;;22.89;52.83;101773.31;6013279;29;20238;-69
2022/08/23 07:30:55;;;;;;;4.65;4.20;;;;;;;23.12;52.29;101777.78;6016758;29;20231;-69
2022/08/23 07:34:17;;;;;;;5.30;2.83;;;;;;;23.01;52.40;101779.16;6012426;29;20238;-70
2022/08/23 07:37:39;;;;;;;8.23;2.80;;;;;;;22.50;53.03;101782.97;6015287;29;20235;-71
2022/08/23 07:41:03;;;;;;;7.40;3.72;;;;;;;22.63;53.88;101784.03;6021131;29;20329;-70
2022/08/23 07:44:25;;;;;;;9.57;3.50;;;;;;;22.72;53.18;101790.25;6023749;29;20604;-70
2022/08/23 07:47:46;;;;;;;3.30;2.88;;;;;;;23.15;52.53;101788.41;6020902;29;20492;-70
2022/08/23 07:51:11;;;;;;;5.53;3.00;;;;;;;22.68;53.01;101783.44;6014995;29;20266;-68
2022/08/23 07:54:32;;;;;;;4.05;2.72;;;;;;;22.51;52.41;101781.94;6008233;29;20250;-69
2022/08/23 07:58:07;;;;;;;8.27;4.22;;;;;;;22.99;51.70;101784.84;5983937;29;20234;-68
2022/08/23 08:01:50;;;;;;;7.30;2.55;;;;;;;23.32;51.43;101787.13;6027862;29;20231;-69
2022/08/23 08:05:11;;;;;;;2.97;2.30;;;;;;;23.04;50.66;101778.78;6015834;29;20234;-69
2022/08/23 08:08:32;;;;;;;2.80;2.55;;;;;;;23.02;50.61;101783.63;6012236;29;20674;-71
2022/08/23 08:11:52;;;;;;;6.07;2.75;;;;;;;23.24;50.11;101788.06;6029714;29;20242;-67
2022/08/23 08:15:28;;;;;;;4.80;2.22;;;;;;;23.46;49.35;101781.56;6009451;29;20238;-70
2022/08/23 08:19:05;;;;;;;2.60;2.40;;;;;;;23.35;48.62;101790.34;6009756;29;21060;-70
2022/08/23 08:22:46;;;;;;;3.70;2.15;;;;;;;23.61;49.15;101792.50;6014682;29;20230;-70
2022/08/23 08:26:13;;;;;;;3.45;2.70;;;;;;;23.46;49.49;101797.22;6004634;29;20242;-71
2022/08/23 08:29:45;;;;;;;2.70;2.42;;;;;;;23.57;49.17;101802.22;6002830;29;20243;-69
2022/08/23 08:33:08;;;;;;;3.08;2.78;;;;;;;23.23;48.79;101797.41;6001710;29;20243;-68
2022/08/23 08:36:34;;;;;;;4.60;2.38;;;;;;;23.38;49.09;101808.38;6012821;29;20727;-67
2022/08/23 08:39:57;;;;;;;6.05;2.85;;;;;;;23.13;49.82;101791.38;6001294;29;20257;-68
2022/08/23 08:43:34;;;;;;;2.55;2.35;;;;;;;23.65;48.94;101802.06;6006606;29;20764;-68
2022/08/23 08:46:56;;;;;;;2.83;2.63;;;;;;;23.87;48.42;101803.72;6004091;29;20243;-67
2022/08/23 08:50:25;;;;;;;4.47;2.97;;;;;;;24.13;48.54;101801.19;5991052;29;20298;-67
2022/08/23 08:53:51;;;;;;;2.90;2.40;;;;;;;24.11;49.36;101805.19;6003438;29;20625;-67
2022/08/23 08:57:37;;;;;;;5.18;2.88;;;;;;;23.65;49.63;101804.81;6008018;29;20243;-68
2022/08/23 09:00:58;;;;;;;5.28;2.33;;;;;;;23.57;49.73;101813.22;6015011;29;20230;-70
2022/08/23 09:04:21;;;;;;;4.28;2.53;;;;;;;24.00;49.37;101806.56;6015191;29;20241;-68
2022/08/23 09:07:54;;;;;;;9.02;2.88;;;;;;;24.62;48.79;101809.28;6026193;29;20641;-67
2022/08/23 09:11:25;;;;;;;4.13;2.60;;;;;;;24.54;47.98;101809.47;6027185;29;20324;-66
2022/08/23 09:15:05;;;;;;;3.38;2.70;;;;;;;24.28;48.38;101806.59;6027800;29;20226;-68
2022/08/23 09:18:26;;;;;;;6.85;2.70;;;;;;;24.50;48.80;101810.94;6010019;29;20641;-68
2022/08/23 09:21:56;;;;;;;6.47;3.15;;;;;;;24.33;49.20;101809.56;6010404;29;20238;-67
2022/08/23 09:25:20;;;;;;;6.80;3.35;;;;;;;24.92;47.73;101805.22;6005025;29;20242;-68
2022/08/23 09:28:52;;;;;;;3.65;2.58;;;;;;;25.14;47.10;101801.22;6011355;29;20230;-67
2022/08/23 09:32:28;;;;;;;3.03;2.60;;;;;;;25.38;47.02;101794.28;6020066;29;20259;-68
2022/08/23 09:36:13;;;;;;;2.85;2.05;;;;;;;25.19;46.66;101800.63;6008373;29;20261;-68
2022/08/23 09:39:37;;;;;;;3.58;2.83;;;;;;;24.56;47.93;101796.31;6011753;29;20556;-68
2022/08/23 09:43:12;;;;;;;6.57;2.42;;;;;;;24.86;47.66;101802.44;6013940;29;20234;-68
2022/08/23 09:46:36;;;;;;;2.65;2.42;;;;;;;24.98;47.73;101798.00;6024382;29;20230;-67
2022/08/23 09:50:08;;;;;;;2.60;2.40;;;;;;;25.39;46.17;101793.19;6012711;29;20239;-68
2022/08/23 09:53:30;;;;;;;3.92;2.33;;;;;;;25.27;45.88;101776.41;6014118;29;20238;-68
2022/08/23 09:56:54;;;;;;;4.70;2.08;;;;;;;25.71;46.00;101777.75;6024225;29;20230;-66
2022/08/23 10:00:26;;;;;;;2.40;2.15;;;;;;;25.09;45.99;101773.44;6006826;29;20242;-69
2022/08/23 10:04:08;;;;;;;2.70;2.25;;;;;;;25.14;46.20;101768.13;6023126;29;20546;-68
2022/08/23 10:07:37;;;;;;;2.22;1.90;;;;;;;25.72;45.51;101765.66;6013735;29;20596;-66
2022/08/23 10:11:06;;;;;;;3.08;2.15;;;;;;;25.83;44.77;101760.31;6012530;29;20230;-67
2022/08/23 10:14:29;;;;;;;4.20;1.67;;;;;;;25.84;45.24;101761.16;6012772;29;20250;-68
2022/08/23 10:17:59;;;;;;;3.53;2.30;;;;;;;26.27;44.53;101761.50;6007453;29;20602;-67
2022/08/23 10:21:28;;;;;;;3.40;2.15;;;;;;;25.95;43.70;101761.34;6023583;29;20230;-68
2022/08/23 10:25:01;;;;;;;3.60;2.55;;;;;;;25.93;44.72;101757.94;6025820;29;20271;-68
2022/08/23 10:32:24;;;;;;;2.38;2.00;;;;;;;26.25;44.31;101761.75;5996977;29;20230;-67
2022/08/23 10:36:01;;;;;;;9.27;8.23;;;;;;;26.67;43.20;101741.78;6008686;29;20243;-66
2022/08/23 10:39:25;;;;;;;1.90;1.67;;;;;;;26.60;41.32;101753.94;6011246;29;20262;-66
2022/08/23 10:42:59;;;;;;;1.70;1.30;;;;;;;26.29;42.40;101754.69;6004938;29;20243;-67
2022/08/23 10:46:22;;;;;;;1.63;1.35;;;;;;;26.20;42.01;101753.25;6007603;29;20410;-67
2022/08/23 10:49:48;;;;;;;2.50;1.60;;;;;;;25.84;42.60;101745.44;6010355;29;20231;-66
2022/08/23 10:53:15;;;;;;;2.90;1.52;;;;;;;26.66;41.96;101747.56;6005620;29;20326;-65
2022/08/23 10:56:37;;;;;;;3.05;1.40;;;;;;;26.71;40.84;101742.19;6014416;29;20239;-67
2022/08/23 11:00:00;;;;;;;2.33;1.55;;;;;;;27.13;39.91;101736.00;6006710;29;20239;-67
2022/08/23 11:03:28;;;;;;;2.17;1.67;;;;;;;26.83;39.84;101735.75;6012044;29;20243;-68
2022/08/23 11:06:52;;;;;;;3.80;1.63;;;;;;;26.93;39.67;101729.75;6013875;29;20607;-68
2022/08/23 11:10:25;;;;;;;1.83;1.38;;;;;;;26.57;39.96;101737.78;6015018;29;20239;-68
2022/08/23 11:13:52;;;;;;;2.92;1.40;;;;;;;26.62;39.72;101730.53;6016707;29;20231;-67
2022/08/23 11:17:26;;;;;;;2.38;1.63;;;;;;;27.12;39.39;101736.22;6012405;29;20227;-66
2022/08/23 11:21:06;;;;;;;2.83;1.40;;;;;;;27.41;37.31;101730.06;6007964;29;20652;-67
2022/08/23 11:24:57;;;;;;;1.58;1.48;;;;;;;27.84;37.87;101733.72;6020230;29;20299;-67
2022/08/23 11:28:49;;;;;;;1.77;1.20;;;;;;;27.34;37.30;101723.69;6013019;29;20234;-69
2022/08/23 11:32:27;;;;;;;3.85;1.50;;;;;;;27.80;36.43;101734.41;6007551;29;20230;-66
2022/08/23 11:35:50;;;;;;;1.92;1.30;;;;;;;27.75;36.03;101731.44;6016451;29;20624;-67
2022/08/23 11:39:13;;;;;;;1.38;1.20;;;;;;;27.29;37.13;101729.06;6014377;29;20242;-67
2022/08/23 11:42:49;;;;;;;4.60;1.80;;;;;;;27.87;36.16;101726.88;6029185;29;20234;-65
2022/08/23 11:46:25;;;;;;;1.33;1.05;;;;;;;29.17;35.90;101728.00;6010593;29;20227;-66
2022/08/23 11:50:19;;;;;;;2.75;1.55;;;;;;;31.21;31.11;101720.09;6011472;29;20230;-71
2022/08/23 11:53:59;;;;;;;1.67;1.05;;;;;;;33.18;27.37;101729.38;6014835;29;20293;-69
2022/08/23 11:57:31;;;;;;;1.95;1.58;;;;;;;35.76;23.89;101723.84;6011987;29;20258;-70
2022/08/23 12:01:06;;;;;;;7.18;1.20;;;;;;;37.16;22.84;101730.09;6016478;29;20226;-70
2022/08/23 12:04:35;;;;;;;1.35;1.25;;;;;;;37.82;20.72;101730.44;6008916;29;20253;-68
2022/08/23 12:08:28;;;;;;;1.95;1.17;;;;;;;38.22;20.43;101725.16;6006149;29;20564;-68
2022/08/23 12:12:22;;;;;;;1.88;1.30;;;;;;;37.82;20.83;101719.16;6011675;29;20325;-69
2022/08/23 12:16:08;;;;;;;2.15;1.48;;;;;;;39.88;19.14;101711.41;6012916;29;20254;-67
2022/08/23 12:19:35;;;;;;;1.10;1.00;;;;;;;38.03;19.70;101721.44;6013128;29;20747;-69
2022/08/23 12:23:02;;;;;;;1.67;1.33;;;;;;;40.50;17.72;101728.84;6020871;29;20242;-68
2022/08/23 12:26:27;;;;;;;2.33;1.50;;;;;;;36.21;22.07;101728.56;6017403;29;20757;-69
2022/08/23 12:29:55;;;;;;;1.40;1.30;;;;;;;37.33;21.08;101725.78;6011944;29;20288;-68
2022/08/23 12:33:30;;;;;;;1.90;1.10;;;;;;;40.24;18.30;101717.22;6011634;29;20234;-72
2022/08/23 12:37:06;;;;;;;1.90;1.10;;;;;;;37.10;20.72;101717.19;6022006;29;20233;-68
2022/08/23 12:40:32;;;;;;;2.10;1.17;;;;;;;38.90;19.70;101711.63;6014081;29;21016;-68
2022/08/23 12:44:00;;;;;;;3.60;2.33;;;;;;;38.94;19.21;101712.72;6017227;29;20234;-67
2022/08/23 12:47:23;;;;;;;1.35;1.17;;;;;;;38.51;20.37;101702.59;6014956;29;20230;-69
2022/08/23 12:50:46;;;;;;;8.70;1.80;;;;;;;38.54;20.02;101710.44;6018116;29;20234;-69
2022/08/23 12:54:17;;;;;;;2.05;1.35;;;;;;;38.34;20.04;101711.53;6017916;29;20239;-69
2022/08/23 12:57:42;;;;;;;1.30;1.20;;;;;;;38.52;18.80;101711.88;6007627;29;20235;-68
2022/08/23 13:01:07;;;;;;;1.15;1.05;;;;;;;38.11;19.64;101703.06;6008619;29;20230;-67
2022/08/23 13:04:29;;;;;;;2.05;1.38;;;;;;;39.62;18.99;101693.25;6009085;29;21282;-69
2022/08/23 13:07:51;;;;;;;3.72;2.30;;;;;;;39.31;19.02;101703.38;6009078;29;20712;-71
2022/08/23 13:11:18;;;;;;;3.00;1.35;;;;;;;39.66;19.04;101694.31;6002427;29;20692;-72
2022/08/23 13:14:45;;;;;;;2.25;1.13;;;;;;;39.93;18.60;101690.69;6014665;29;20278;-71
2022/08/23 13:18:06;;;;;;;1.38;1.27;;;;;;;36.77;20.27;101694.31;6006151;29;20308;-67
2022/08/23 13:21:30;;;;;;;4.03;1.52;;;;;;;37.84;19.94;101697.16;6010708;29;21134;-69
2022/08/23 13:25:02;;;;;;;3.00;1.75;;;;;;;36.00;21.13;101686.50;6016850;29;20230;-70
2022/08/23 13:28:27;;;;;;;1.52;1.40;;;;;;;37.44;20.53;101685.16;6015764;29;20321;-69
2022/08/23 13:31:54;;;;;;;1.65;1.40;;;;;;;38.50;19.95;101685.94;6014035;29;20664;-69
2022/08/23 13:35:39;;;;;;;1.85;1.75;;;;;;;36.78;20.42;101687.56;6017864;29;20273;-70
2022/08/23 13:39:06;;;;;;;1.38;1.00;;;;;;;35.29;21.50;101680.09;6016067;29;20243;-70
2022/08/23 13:42:35;;;;;;;2.95;1.30;;;;;;;37.26;20.29;101685.00;6022129;29;20258;-70
2022/08/23 13:46:00;;;;;;;2.40;1.58;;;;;;;39.08;18.92;101687.38;6017770;29;20620;-69
2022/08/23 13:49:26;;;;;;;2.10;1.20;;;;;;;39.03;19.17;101685.47;6008256;29;20602;-69
2022/08/23 13:52:47;;;;;;;3.05;1.58;;;;;;;34.88;22.46;101678.34;6016110;29;20226;-68
2022/08/23 13:56:08;;;;;;;1.75;1.15;;;;;;;35.76;22.19;101684.53;5998907;29;20242;-71
2022/08/23 13:59:32;;;;;;;4.55;1.73;;;;;;;37.67;20.44;101679.84;6013864;29;20853;-73
2022/08/23 14:02:54;;;;;;;2.95;1.48;;;;;;;34.99;21.55;101679.22;6014065;29;20521;-74
2022/08/23 14:06:15;;;;;;;3.13;1.50;;;;;;;36.20;21.81;101673.50;6014916;29;20230;-76
2022/08/23 14:09:37;;;;;;;1.30;1.08;;;;;;;38.26;20.67;101663.47;6010686;29;20234;-82
2022/08/23 14:12:59;;;;;;;2.28;1.60;;;;;;;37.94;21.03;101669.72;6014040;29;20227;-72
2022/08/23 14:16:25;;;;;;;3.88;2.25;;;;;;;35.98;22.27;101666.28;6005685;29;20242;-73
2022/08/23 14:19:48;;;;;;;3.83;1.50;;;;;;;34.62;23.89;101675.75;6012107;29;20377;-73
2022/08/23 14:23:09;;;;;;;2.13;1.42;;;;;;;34.68;23.47;101672.69;6012758;29;20250;-73
2022/08/23 14:26:30;;;;;;;2.85;1.70;;;;;;;33.11;25.08;101674.78;6016901;29;20254;-75
2022/08/23 14:29:51;;;;;;;3.30;2.40;;;;;;;32.96;25.65;101676.28;6012306;29;20226;-75
2022/08/23 14:33:12;;;;;;;2.50;1.48;;;;;;;32.42;26.13;101680.13;6019879;29;20605;-72
2022/08/23 14:36:34;;;;;;;2.28;1.50;;;;;;;33.18;26.82;101678.19;6006729;29;20625;-72
2022/08/23 14:39:55;;;;;;;1.73;1.40;;;;;;;33.66;25.11;101672.44;6011035;29;20234;-71
2022/08/23 14:43:16;;;;;;;2.10;1.65;;;;;;;33.36;25.09;101664.66;6027871;29;20234;-72
2022/08/23 14:46:37;;;;;;;2.88;1.20;;;;;;;32.75;25.08;101666.00;6010602;29;20234;-71
2022/08/23 14:49:58;;;;;;;3.42;1.50;;;;;;;32.71;25.54;101659.25;6011449;29;20235;-73
2022/08/23 14:53:24;;;;;;;2.08;1.90;;;;;;;32.11;26.18;101656.56;6014940;29;20685;-73
2022/08/23 14:56:45;;;;;;;1.50;1.10;;;;;;;31.70;26.84;101656.25;6017953;29;20242;-72
2022/08/23 15:00:12;;;;;;;3.72;1.52;;;;;;;31.84;27.67;101655.63;6010590;29;20249;-72
2022/08/23 15:03:33;;;;;;;3.40;1.42;;;;;;;32.17;26.50;101660.25;6008229;29;20307;-71
2022/08/23 15:06:54;;;;;;;1.88;1.35;;;;;;;31.86;26.66;101655.34;6013361;29;20238;-73
2022/08/23 15:10:16;;;;;;;3.08;1.50;;;;;;;30.69;27.54;101646.13;6005776;29;20234;-72
2022/08/23 15:13:37;;;;;;;2.03;1.83;;;;;;;31.78;27.67;101648.28;6002098;29;20608;-71
2022/08/23 15:16:59;;;;;;;2.47;1.13;;;;;;;31.81;26.61;101656.16;6009636;29;20234;-71
2022/08/23 15:20:22;;;;;;;3.90;1.80;;;;;;;31.46;27.96;101648.06;6016202;29;20269;-71
2022/08/23 15:23:44;;;;;;;3.10;1.55;;;;;;;30.92;27.77;101643.22;6014712;29;20234;-72
2022/08/23 15:27:07;;;;;;;2.28;1.63;;;;;;;31.84;27.45;101649.19;6014735;29;20230;-72
2022/08/23 15:30:29;;;;;;;3.40;1.88;;;;;;;31.20;28.78;101657.13;6011162;29;20705;-72
2022/08/23 15:33:50;;;;;;;4.28;1.42;;;;;;;31.50;28.07;101652.03;6005981;29;20270;-72
2022/08/23 15:37:11;;;;;;;2.83;1.50;;;;;;;31.75;27.59;101654.34;6004116;29;20247;-72
2022/08/23 15:40:32;;;;;;;3.05;1.65;;;;;;;30.85;27.53;101650.03;6012673;29;20321;-73
2022/08/23 15:43:55;;;;;;;1.83;1.35;;;;;;;30.49;27.98;101654.09;5994462;29;20247;-66
2022/08/23 15:47:21;;;;;;;3.78;1.73;;;;;;;30.89;27.35;101649.31;6018482;29;20238;-67
2022/08/23 15:50:45;;;;;;;1.63;1.35;;;;;;;30.98;27.48;101636.66;6017046;29;20802;-66
2022/08/23 15:54:07;;;;;;;1.42;1.33;;;;;;;31.47;27.68;101646.16;6012260;29;20238;-66
2022/08/23 15:57:30;;;;;;;2.97;1.65;;;;;;;30.80;27.39;101639.66;6014699;29;20642;-66
2022/08/23 16:00:53;;;;;;;1.35;1.20;;;;;;;30.52;28.04;101634.94;6015555;29;20302;-66
2022/08/23 16:04:14;;;;;;;4.50;1.63;;;;;;;31.13;27.52;101636.91;6015011;29;20580;-66